sensor_id;sensor_type;location;lat;lon;timestamp;pressure;altitude;pressure_sealevel;temperature;humidity
21449;BME280;10885;52.830;13.788;2023-05-16T05:11:54;100705.53;;;11.69;85.42
21449;BME280;10885;52.830;13.788;2023-05-16T05:17:16;100719.38;;;11.87;83.74
21449;BME280;10885;52.830;13.788;2023-05-16T05:22:37;100721.53;;;11.94;83.12
21449;BME280;10885;52.830;13.788;2023-05-16T05:27:58;100743.81;;;11.96;82.77
21449;BME280;10885;52.830;13.788;2023-05-16T05:33:25;100755.16;;;11.99;82.13
21449;BME280;10885;52.830;13.788;2023-05-16T05:38:47;100753.94;;;11.78;82.22
21449;BME280;10885;52.830;13.788;2023-05-16T05:44:08;100771.31;;;11.82;81.82
21449;BME280;10885;52.830;13.788;2023-05-16T05:49:29;100771.66;;;11.73;82.27
21449;BME280;10885;52.830;13.788;2023-05-16T05:54:51;100786.44;;;11.77;81.75
21449;BME280;10885;52.830;13.788;2023-05-16T06:00:12;100790.72;;;11.77;81.70
21449;BME280;10885;52.830;13.788;2023-05-16T06:05:33;100793.38;;;11.78;81.45
21449;BME280;10885;52.830;13.788;2023-05-16T06:10:55;100813.38;;;11.69;81.40
21449;BME280;10885;52.830;13.788;2023-05-16T06:16:16;100808.25;;;11.84;81.07
21449;BME280;10885;52.830;13.788;2023-05-16T06:21:37;100817.69;;;11.85;80.01
21449;BME280;10885;52.830;13.788;2023-05-16T06:26:58;100825.16;;;11.95;79.18
21449;BME280;10885;52.830;13.788;2023-05-16T06:32:21;100826.28;;;11.85;79.37
21449;BME280;10885;52.830;13.788;2023-05-16T06:37:42;100825.25;;;11.82;79.48
21449;BME280;10885;52.830;13.788;2023-05-16T06:43:03;100845.41;;;11.75;78.79
21449;BME280;10885;52.830;13.788;2023-05-16T06:48:24;100841.88;;;11.88;77.72
21449;BME280;10885;52.830;13.788;2023-05-16T06:53:46;100861.22;;;11.82;77.31
21449;BME280;10885;52.830;13.788;2023-05-16T06:59:06;100870.56;;;11.81;76.89
21449;BME280;10885;52.830;13.788;2023-05-16T07:04:28;100871.63;;;11.85;77.59
21449;BME280;10885;52.830;13.788;2023-05-16T07:09:49;100875.34;;;12.05;76.20
21449;BME280;10885;52.830;13.788;2023-05-16T07:15:10;100878.56;;;12.01;75.98
21449;BME280;10885;52.830;13.788;2023-05-16T07:20:31;100880.69;;;12.08;76.31
21449;BME280;10885;52.830;13.788;2023-05-16T07:25:53;100892.56;;;12.06;75.91
21449;BME280;10885;52.830;13.788;2023-05-16T07:31:15;100904.25;;;12.01;75.33
21449;BME280;10885;52.830;13.788;2023-05-16T07:36:39;100915.31;;;12.14;74.69
21449;BME280;10885;52.830;13.788;2023-05-16T07:42:00;100916.38;;;12.18;74.27
21449;BME280;10885;52.830;13.788;2023-05-16T07:47:21;100918.34;;;12.39;73.17
21449;BME280;10885;52.830;13.788;2023-05-16T07:52:43;100922.91;;;12.59;72.29
21449;BME280;10885;52.830;13.788;2023-05-16T07:58:04;100928.63;;;12.53;72.19
21449;BME280;10885;52.830;13.788;2023-05-16T08:03:26;100929.72;;;12.59;71.19
21449;BME280;10885;52.830;13.788;2023-05-16T08:08:47;100934.63;;;12.54;71.62
21449;BME280;10885;52.830;13.788;2023-05-16T08:14:09;100942.47;;;12.41;72.04
21449;BME280;10885;52.830;13.788;2023-05-16T08:19:31;100955.16;;;12.38;71.59
21449;BME280;10885;52.830;13.788;2023-05-16T08:24:53;100952.72;;;12.56;70.55
21449;BME280;10885;52.830;13.788;2023-05-16T08:30:17;100957.78;;;12.54;70.42
21449;BME280;10885;52.830;13.788;2023-05-16T08:35:42;100961.91;;;12.36;70.42
21449;BME280;10885;52.830;13.788;2023-05-16T08:41:04;100970.16;;;12.15;70.97
21449;BME280;10885;52.830;13.788;2023-05-16T08:46:27;100978.66;;;12.29;71.04
21449;BME280;10885;52.830;13.788;2023-05-16T08:51:50;100978.81;;;12.17;71.31
21449;BME280;10885;52.830;13.788;2023-05-16T08:57:13;100977.66;;;12.27;70.45
21449;BME280;10885;52.830;13.788;2023-05-16T09:02:34;100989.03;;;12.16;70.15
21449;BME280;10885;52.830;13.788;2023-05-16T09:07:56;100992.56;;;12.32;69.68
21449;BME280;10885;52.830;13.788;2023-05-16T09:13:17;100988.91;;;12.29;69.68
21449;BME280;10885;52.830;13.788;2023-05-16T09:18:40;100987.16;;;12.28;69.98
21449;BME280;10885;52.830;13.788;2023-05-16T09:24:05;100979.03;;;12.20;69.75
21449;BME280;10885;52.830;13.788;2023-05-16T09:29:26;100989.03;;;12.16;69.71
21449;BME280;10885;52.830;13.788;2023-05-16T09:34:48;100987.94;;;12.27;68.64
21449;BME280;10885;52.830;13.788;2023-05-16T09:40:11;100989.47;;;12.23;69.33
21449;BME280;10885;52.830;13.788;2023-05-16T09:45:33;101004.78;;;12.37;67.47
21449;BME280;10885;52.830;13.788;2023-05-16T09:50:55;101004.97;;;12.40;66.61
21449;BME280;10885;52.830;13.788;2023-05-16T09:56:23;101020.13;;;12.20;67.18
21449;BME280;10885;52.830;13.788;2023-05-16T10:01:46;101029.88;;;12.41;66.29
21449;BME280;10885;52.830;13.788;2023-05-16T10:07:08;101037.38;;;12.67;64.92
21449;BME280;10885;52.830;13.788;2023-05-16T10:12:31;101038.59;;;12.74;64.90
21449;BME280;10885;52.830;13.788;2023-05-16T10:17:54;101045.19;;;13.00;63.41
21449;BME280;10885;52.830;13.788;2023-05-16T10:23:18;101037.56;;;13.02;63.11
21449;BME280;10885;52.830;13.788;2023-05-16T10:28:40;101036.91;;;13.06;62.71
21449;BME280;10885;52.830;13.788;2023-05-16T10:34:02;101044.91;;;13.27;61.96
21449;BME280;10885;52.830;13.788;2023-05-16T10:39:24;101044.47;;;13.34;61.73
21449;BME280;10885;52.830;13.788;2023-05-16T10:44:46;101049.56;;;13.49;61.09
21449;BME280;10885;52.830;13.788;2023-05-16T10:50:32;101045.84;;;13.60;60.87
21449;BME280;10885;52.830;13.788;2023-05-16T11:06:53;101058.16;;;13.49;60.26
21449;BME280;10885;52.830;13.788;2023-05-16T11:12:19;101045.75;;;13.42;60.24
21449;BME280;10885;52.830;13.788;2023-05-16T11:17:41;101059.53;;;13.59;58.93
21449;BME280;10885;52.830;13.788;2023-05-16T11:28:37;101059.13;;;13.68;58.73
21449;BME280;10885;52.830;13.788;2023-05-16T11:33:58;101068.16;;;13.60;58.51
21449;BME280;10885;52.830;13.788;2023-05-16T11:39:19;101061.06;;;13.56;58.92
21449;BME280;10885;52.830;13.788;2023-05-16T11:44:41;101070.56;;;13.57;59.69
21449;BME280;10885;52.830;13.788;2023-05-16T11:50:06;101071.38;;;13.39;60.07
21449;BME280;10885;52.830;13.788;2023-05-16T11:55:30;101082.78;;;13.44;60.03
21449;BME280;10885;52.830;13.788;2023-05-16T12:01:03;101083.97;;;13.35;60.38
21449;BME280;10885;52.830;13.788;2023-05-16T12:06:24;101098.59;;;13.67;59.15
21449;BME280;10885;52.830;13.788;2023-05-16T12:11:46;101092.06;;;13.73;57.65
21449;BME280;10885;52.830;13.788;2023-05-16T12:17:07;101093.81;;;13.75;57.76
21449;BME280;10885;52.830;13.788;2023-05-16T12:22:28;101099.47;;;13.67;56.76
21449;BME280;10885;52.830;13.788;2023-05-16T12:27:52;101096.31;;;13.89;56.79
21449;BME280;10885;52.830;13.788;2023-05-16T12:33:14;101100.41;;;14.02;56.64
21449;BME280;10885;52.830;13.788;2023-05-16T12:38:35;101111.44;;;14.00;55.96
21449;BME280;10885;52.830;13.788;2023-05-16T12:44:13;101105.44;;;15.59;52.02
21449;BME280;10885;52.830;13.788;2023-05-16T12:49:36;101107.22;;;16.19;48.69
21449;BME280;10885;52.830;13.788;2023-05-16T12:54:58;101113.84;;;16.12;47.03
21449;BME280;10885;52.830;13.788;2023-05-16T13:00:20;101111.47;;;15.78;48.51
21449;BME280;10885;52.830;13.788;2023-05-16T13:05:44;101118.94;;;15.54;49.05
21449;BME280;10885;52.830;13.788;2023-05-16T13:11:06;101116.28;;;15.32;50.17
21449;BME280;10885;52.830;13.788;2023-05-16T13:16:26;101121.97;;;15.07;51.22
21449;BME280;10885;52.830;13.788;2023-05-16T13:21:47;101097.84;;;15.25;50.29
21449;BME280;10885;52.830;13.788;2023-05-16T13:27:08;101104.03;;;15.28;50.63
21449;BME280;10885;52.830;13.788;2023-05-16T13:32:29;101096.28;;;15.85;49.42
21449;BME280;10885;52.830;13.788;2023-05-16T13:37:50;101092.00;;;16.46;47.08
21449;BME280;10885;52.830;13.788;2023-05-16T13:43:11;101093.13;;;16.74;45.08
21449;BME280;10885;52.830;13.788;2023-05-16T13:48:35;101093.59;;;17.29;44.66
21449;BME280;10885;52.830;13.788;2023-05-16T13:53:56;101086.34;;;17.43;43.56
21449;BME280;10885;52.830;13.788;2023-05-16T13:59:18;101096.78;;;17.22;44.12
21449;BME280;10885;52.830;13.788;2023-05-16T14:04:43;101096.13;;;17.05;44.35
21449;BME280;10885;52.830;13.788;2023-05-16T14:10:05;101098.66;;;17.04;45.02
21449;BME280;10885;52.830;13.788;2023-05-16T14:15:27;101096.22;;;17.07;44.16
21449;BME280;10885;52.830;13.788;2023-05-16T14:20:48;101095.56;;;17.35;43.21
21449;BME280;10885;52.830;13.788;2023-05-16T14:26:10;101096.22;;;18.00;40.90
21449;BME280;10885;52.830;13.788;2023-05-16T14:31:32;101101.03;;;17.89;39.25
21449;BME280;10885;52.830;13.788;2023-05-16T14:36:53;101097.88;;;17.52;40.40
21449;BME280;10885;52.830;13.788;2023-05-16T14:42:14;101104.13;;;17.34;41.21
21449;BME280;10885;52.830;13.788;2023-05-16T14:47:35;101103.50;;;17.40;42.17
21449;BME280;10885;52.830;13.788;2023-05-16T14:52:57;101099.63;;;17.53;40.96
21449;BME280;10885;52.830;13.788;2023-05-16T14:58:18;101098.41;;;17.65;39.42
21449;BME280;10885;52.830;13.788;2023-05-16T15:03:39;101103.56;;;17.41;38.62
21449;BME280;10885;52.830;13.788;2023-05-16T15:09:04;101097.38;;;17.15;39.09
21449;BME280;10885;52.830;13.788;2023-05-16T15:14:26;101086.16;;;17.61;38.15
21449;BME280;10885;52.830;13.788;2023-05-16T15:19:47;101086.03;;;17.82;36.45
21449;BME280;10885;52.830;13.788;2023-05-16T15:25:09;101083.28;;;17.78;35.78
21449;BME280;10885;52.830;13.788;2023-05-16T15:30:31;101100.03;;;17.86;32.93
21449;BME280;10885;52.830;13.788;2023-05-16T15:35:51;101098.75;;;17.52;33.19
21449;BME280;10885;52.830;13.788;2023-05-16T15:41:13;101108.66;;;17.62;31.94
21449;BME280;10885;52.830;13.788;2023-05-16T15:46:41;101098.28;;;17.85;31.80
21449;BME280;10885;52.830;13.788;2023-05-16T15:52:03;101095.91;;;17.68;31.68
21449;BME280;10885;52.830;13.788;2023-05-16T15:57:24;101084.81;;;17.48;32.43
21449;BME280;10885;52.830;13.788;2023-05-16T16:02:45;101094.56;;;17.32;32.42
21449;BME280;10885;52.830;13.788;2023-05-16T16:08:07;101097.72;;;17.47;32.74
21449;BME280;10885;52.830;13.788;2023-05-16T16:13:29;101103.66;;;17.44;31.08
21449;BME280;10885;52.830;13.788;2023-05-16T16:18:52;101099.78;;;17.33;31.82
21449;BME280;10885;52.830;13.788;2023-05-16T16:24:13;101105.09;;;17.14;31.28
21449;BME280;10885;52.830;13.788;2023-05-16T16:29:35;101103.66;;;16.99;31.39
21449;BME280;10885;52.830;13.788;2023-05-16T16:34:56;101099.69;;;16.86;32.13
21449;BME280;10885;52.830;13.788;2023-05-16T16:40:17;101094.19;;;16.58;30.89
21449;BME280;10885;52.830;13.788;2023-05-16T16:45:39;101094.41;;;16.41;31.29
21449;BME280;10885;52.830;13.788;2023-05-16T16:51:01;101105.28;;;16.55;31.94
21449;BME280;10885;52.830;13.788;2023-05-16T16:56:23;101085.94;;;16.45;31.68
21449;BME280;10885;52.830;13.788;2023-05-16T17:01:46;101089.91;;;16.58;32.80
21449;BME280;10885;52.830;13.788;2023-05-16T17:07:07;101090.97;;;16.84;32.86
21449;BME280;10885;52.830;13.788;2023-05-16T17:12:29;101100.56;;;16.66;32.65
21449;BME280;10885;52.830;13.788;2023-05-16T17:17:51;101087.69;;;16.67;32.42
21449;BME280;10885;52.830;13.788;2023-05-16T17:23:12;101097.59;;;16.57;32.60
21449;BME280;10885;52.830;13.788;2023-05-16T17:28:34;101096.31;;;16.47;33.32
21449;BME280;10885;52.830;13.788;2023-05-16T17:33:55;101097.84;;;16.42;32.40
21449;BME280;10885;52.830;13.788;2023-05-16T17:39:16;101115.75;;;16.16;32.68
21449;BME280;10885;52.830;13.788;2023-05-16T17:44:37;101123.56;;;15.79;32.51
21449;BME280;10885;52.830;13.788;2023-05-16T17:50:01;101132.31;;;15.63;33.39
21449;BME280;10885;52.830;13.788;2023-05-16T17:55:24;101143.50;;;15.44;33.73
21449;BME280;10885;52.830;13.788;2023-05-16T18:00:45;101153.19;;;15.30;34.49
21449;BME280;10885;52.830;13.788;2023-05-16T18:06:08;101153.63;;;15.21;35.43
21449;BME280;10885;52.830;13.788;2023-05-16T18:11:35;101167.94;;;14.97;36.26
21449;BME280;10885;52.830;13.788;2023-05-16T18:16:57;101163.53;;;14.94;36.82
21449;BME280;10885;52.830;13.788;2023-05-16T18:22:18;101191.38;;;14.83;37.30
21449;BME280;10885;52.830;13.788;2023-05-16T18:27:39;101198.03;;;14.78;36.50
21449;BME280;10885;52.830;13.788;2023-05-16T18:33:01;101198.50;;;14.55;37.31
21449;BME280;10885;52.830;13.788;2023-05-16T18:38:22;101215.59;;;14.36;37.03
21449;BME280;10885;52.830;13.788;2023-05-16T18:43:48;101217.94;;;14.15;37.52
21449;BME280;10885;52.830;13.788;2023-05-16T18:49:09;101228.31;;;14.00;37.90
21449;BME280;10885;52.830;13.788;2023-05-16T18:54:30;101233.78;;;13.90;38.33
21449;BME280;10885;52.830;13.788;2023-05-16T18:59:51;101235.59;;;13.76;39.08
21449;BME280;10885;52.830;13.788;2023-05-16T19:05:13;101248.13;;;13.53;39.65
21449;BME280;10885;52.830;13.788;2023-05-16T19:10:35;101244.31;;;13.17;41.04
21449;BME280;10885;52.830;13.788;2023-05-16T19:15:57;101255.06;;;13.10;41.02
21449;BME280;10885;52.830;13.788;2023-05-16T19:21:19;101262.22;;;12.86;41.24
21449;BME280;10885;52.830;13.788;2023-05-16T19:26:40;101281.53;;;12.79;41.25
21449;BME280;10885;52.830;13.788;2023-05-16T19:32:02;101286.31;;;12.58;42.02
21449;BME280;10885;52.830;13.788;2023-05-16T19:37:23;101290.41;;;12.41;42.58
21449;BME280;10885;52.830;13.788;2023-05-16T19:42:45;101301.25;;;12.22;42.76
21449;BME280;10885;52.830;13.788;2023-05-16T19:48:05;101309.97;;;12.11;43.48
21449;BME280;10885;52.830;13.788;2023-05-16T19:53:27;101313.03;;;12.19;42.32
21449;BME280;10885;52.830;13.788;2023-05-16T19:58:48;101306.84;;;12.02;42.43
21449;BME280;10885;52.830;13.788;2023-05-16T20:04:09;101316.59;;;11.81;43.14
21449;BME280;10885;52.830;13.788;2023-05-16T20:09:31;101310.69;;;11.68;43.41
21449;BME280;10885;52.830;13.788;2023-05-16T20:14:52;101311.94;;;11.62;43.75
21449;BME280;10885;52.830;13.788;2023-05-16T20:20:14;101314.91;;;11.41;44.81
21449;BME280;10885;52.830;13.788;2023-05-16T20:25:35;101319.19;;;11.15;44.98
21449;BME280;10885;52.830;13.788;2023-05-16T20:30:57;101321.00;;;11.30;45.21
21449;BME280;10885;52.830;13.788;2023-05-16T20:36:18;101330.44;;;11.04;45.77
21449;BME280;10885;52.830;13.788;2023-05-16T20:41:40;101340.72;;;11.04;46.36
21449;BME280;10885;52.830;13.788;2023-05-16T20:47:01;101342.13;;;10.87;47.33
21449;BME280;10885;52.830;13.788;2023-05-16T20:52:23;101339.03;;;10.80;46.66
21449;BME280;10885;52.830;13.788;2023-05-16T20:57:44;101345.13;;;10.82;46.56
21449;BME280;10885;52.830;13.788;2023-05-16T21:03:05;101339.19;;;10.69;47.65
21449;BME280;10885;52.830;13.788;2023-05-16T21:08:26;101342.25;;;10.52;47.65
21449;BME280;10885;52.830;13.788;2023-05-16T21:13:47;101352.94;;;10.46;48.00
21449;BME280;10885;52.830;13.788;2023-05-16T21:19:08;101353.31;;;10.27;49.12
